sensor_id;sensor_type;location;lat;lon;timestamp;P1;durP1;ratioP1;P2;durP2;ratioP2
7517;SDS011;3800;48.922;9.444;2023-07-31T00:00:42;3.83;;;2.03;;
7517;SDS011;3800;48.922;9.444;2023-07-31T00:03:11;4.73;;;2.20;;
7517;SDS011;3800;48.922;9.444;2023-07-31T00:05:39;4.70;;;2.30;;
7517;SDS011;3800;48.922;9.444;2023-07-31T00:08:07;2.87;;;2.10;;
7517;SDS011;3800;48.922;9.444;2023-07-31T00:10:37;7.67;;;2.30;;
7517;SDS011;3800;48.922;9.444;2023-07-31T00:13:05;5.03;;;2.00;;
7517;SDS011;3800;48.922;9.444;2023-07-31T00:15:33;2.70;;;2.20;;
7517;SDS011;3800;48.922;9.444;2023-07-31T00:18:02;3.67;;;2.30;;
7517;SDS011;3800;48.922;9.444;2023-07-31T00:20:31;4.37;;;2.10;;
7517;SDS011;3800;48.922;9.444;2023-07-31T00:22:59;6.83;;;2.20;;
7517;SDS011;3800;48.922;9.444;2023-07-31T00:25:28;3.00;;;1.93;;
7517;SDS011;3800;48.922;9.444;2023-07-31T00:27:56;3.83;;;2.13;;
7517;SDS011;3800;48.922;9.444;2023-07-31T00:30:24;3.37;;;2.00;;
7517;SDS011;3800;48.922;9.444;2023-07-31T00:32:53;3.27;;;2.23;;
7517;SDS011;3800;48.922;9.444;2023-07-31T00:35:21;2.20;;;1.97;;
7517;SDS011;3800;48.922;9.444;2023-07-31T00:37:50;3.87;;;2.10;;
7517;SDS011;3800;48.922;9.444;2023-07-31T00:40:20;2.27;;;1.80;;
7517;SDS011;3800;48.922;9.444;2023-07-31T00:42:48;3.00;;;1.90;;
7517;SDS011;3800;48.922;9.444;2023-07-31T00:45:16;3.57;;;2.10;;
7517;SDS011;3800;48.922;9.444;2023-07-31T00:47:45;3.17;;;2.10;;
7517;SDS011;3800;48.922;9.444;2023-07-31T00:50:14;3.13;;;2.20;;
7517;SDS011;3800;48.922;9.444;2023-07-31T00:52:42;3.87;;;2.20;;
7517;SDS011;3800;48.922;9.444;2023-07-31T00:55:10;2.93;;;2.10;;
7517;SDS011;3800;48.922;9.444;2023-07-31T00:57:38;7.00;;;2.27;;
7517;SDS011;3800;48.922;9.444;2023-07-31T01:00:07;4.73;;;2.07;;
7517;SDS011;3800;48.922;9.444;2023-07-31T01:02:36;3.73;;;2.10;;
7517;SDS011;3800;48.922;9.444;2023-07-31T01:05:05;3.20;;;2.30;;
7517;SDS011;3800;48.922;9.444;2023-07-31T01:07:40;4.53;;;2.10;;
7517;SDS011;3800;48.922;9.444;2023-07-31T01:10:13;3.23;;;2.10;;
7517;SDS011;3800;48.922;9.444;2023-07-31T01:12:40;4.27;;;2.13;;
7517;SDS011;3800;48.922;9.444;2023-07-31T01:15:09;3.90;;;2.30;;
7517;SDS011;3800;48.922;9.444;2023-07-31T01:17:38;4.47;;;2.10;;
7517;SDS011;3800;48.922;9.444;2023-07-31T01:20:10;2.47;;;1.90;;
7517;SDS011;3800;48.922;9.444;2023-07-31T01:22:43;4.17;;;2.33;;
7517;SDS011;3800;48.922;9.444;2023-07-31T01:25:35;2.57;;;1.90;;
7517;SDS011;3800;48.922;9.444;2023-07-31T01:28:08;2.57;;;2.30;;
7517;SDS011;3800;48.922;9.444;2023-07-31T01:30:37;3.53;;;2.33;;
7517;SDS011;3800;48.922;9.444;2023-07-31T01:33:04;5.17;;;2.17;;
7517;SDS011;3800;48.922;9.444;2023-07-31T01:35:34;3.67;;;2.00;;
7517;SDS011;3800;48.922;9.444;2023-07-31T01:38:02;4.20;;;2.20;;
7517;SDS011;3800;48.922;9.444;2023-07-31T01:40:30;3.57;;;2.27;;
7517;SDS011;3800;48.922;9.444;2023-07-31T01:42:58;3.57;;;2.30;;
7517;SDS011;3800;48.922;9.444;2023-07-31T01:45:26;6.93;;;2.23;;
7517;SDS011;3800;48.922;9.444;2023-07-31T01:47:55;4.07;;;2.00;;
7517;SDS011;3800;48.922;9.444;2023-07-31T01:50:23;7.90;;;2.23;;
7517;SDS011;3800;48.922;9.444;2023-07-31T01:52:51;3.23;;;2.03;;
7517;SDS011;3800;48.922;9.444;2023-07-31T01:55:20;4.50;;;2.10;;
7517;SDS011;3800;48.922;9.444;2023-07-31T01:57:48;5.93;;;2.37;;
7517;SDS011;3800;48.922;9.444;2023-07-31T02:00:16;2.40;;;2.00;;
7517;SDS011;3800;48.922;9.444;2023-07-31T02:02:44;4.17;;;2.00;;
7517;SDS011;3800;48.922;9.444;2023-07-31T02:05:13;2.93;;;2.13;;
7517;SDS011;3800;48.922;9.444;2023-07-31T02:07:42;2.80;;;1.77;;
7517;SDS011;3800;48.922;9.444;2023-07-31T02:10:10;5.43;;;2.43;;
7517;SDS011;3800;48.922;9.444;2023-07-31T02:12:40;3.77;;;2.27;;
7517;SDS011;3800;48.922;9.444;2023-07-31T02:15:09;5.13;;;2.13;;
7517;SDS011;3800;48.922;9.444;2023-07-31T02:17:37;3.57;;;1.90;;
7517;SDS011;3800;48.922;9.444;2023-07-31T02:20:06;2.43;;;2.00;;
7517;SDS011;3800;48.922;9.444;2023-07-31T02:22:36;3.80;;;2.03;;
7517;SDS011;3800;48.922;9.444;2023-07-31T02:25:04;3.63;;;2.10;;
7517;SDS011;3800;48.922;9.444;2023-07-31T02:27:33;4.83;;;2.00;;
7517;SDS011;3800;48.922;9.444;2023-07-31T02:30:01;4.83;;;2.27;;
7517;SDS011;3800;48.922;9.444;2023-07-31T02:32:29;3.63;;;2.17;;
7517;SDS011;3800;48.922;9.444;2023-07-31T02:34:58;4.17;;;1.97;;
7517;SDS011;3800;48.922;9.444;2023-07-31T02:37:26;4.70;;;2.27;;
7517;SDS011;3800;48.922;9.444;2023-07-31T02:39:55;3.83;;;2.10;;
7517;SDS011;3800;48.922;9.444;2023-07-31T02:42:23;3.27;;;2.07;;
7517;SDS011;3800;48.922;9.444;2023-07-31T02:44:51;4.50;;;2.30;;
7517;SDS011;3800;48.922;9.444;2023-07-31T02:47:20;3.73;;;2.10;;
7517;SDS011;3800;48.922;9.444;2023-07-31T02:49:49;4.20;;;2.10;;
7517;SDS011;3800;48.922;9.444;2023-07-31T02:52:18;6.10;;;2.50;;
7517;SDS011;3800;48.922;9.444;2023-07-31T02:54:46;3.23;;;2.00;;
7517;SDS011;3800;48.922;9.444;2023-07-31T02:57:15;4.30;;;2.10;;
7517;SDS011;3800;48.922;9.444;2023-07-31T02:59:43;3.17;;;1.90;;
7517;SDS011;3800;48.922;9.444;2023-07-31T03:02:11;2.67;;;1.90;;
7517;SDS011;3800;48.922;9.444;2023-07-31T03:04:41;3.47;;;2.00;;
7517;SDS011;3800;48.922;9.444;2023-07-31T03:07:09;3.43;;;2.50;;
7517;SDS011;3800;48.922;9.444;2023-07-31T03:09:37;2.93;;;2.03;;
7517;SDS011;3800;48.922;9.444;2023-07-31T03:12:06;3.10;;;1.83;;
7517;SDS011;3800;48.922;9.444;2023-07-31T03:14:35;3.93;;;1.97;;
7517;SDS011;3800;48.922;9.444;2023-07-31T03:17:04;4.20;;;1.90;;
7517;SDS011;3800;48.922;9.444;2023-07-31T03:19:32;4.00;;;1.90;;
7517;SDS011;3800;48.922;9.444;2023-07-31T03:22:00;4.67;;;2.10;;
7517;SDS011;3800;48.922;9.444;2023-07-31T03:24:30;3.97;;;2.13;;
7517;SDS011;3800;48.922;9.444;2023-07-31T03:26:58;2.93;;;2.20;;
7517;SDS011;3800;48.922;9.444;2023-07-31T03:29:26;3.07;;;1.87;;
7517;SDS011;3800;48.922;9.444;2023-07-31T03:31:55;4.13;;;2.30;;
7517;SDS011;3800;48.922;9.444;2023-07-31T03:34:23;3.27;;;2.10;;
7517;SDS011;3800;48.922;9.444;2023-07-31T03:36:51;3.40;;;1.80;;
7517;SDS011;3800;48.922;9.444;2023-07-31T03:39:20;3.20;;;2.17;;
7517;SDS011;3800;48.922;9.444;2023-07-31T03:41:48;3.80;;;2.27;;
7517;SDS011;3800;48.922;9.444;2023-07-31T03:44:17;2.87;;;2.00;;
7517;SDS011;3800;48.922;9.444;2023-07-31T03:46:45;3.47;;;1.83;;
7517;SDS011;3800;48.922;9.444;2023-07-31T03:49:14;5.33;;;2.00;;
7517;SDS011;3800;48.922;9.444;2023-07-31T03:51:42;2.20;;;1.87;;
7517;SDS011;3800;48.922;9.444;2023-07-31T03:54:10;5.90;;;2.50;;
7517;SDS011;3800;48.922;9.444;2023-07-31T03:56:38;2.57;;;1.73;;
7517;SDS011;3800;48.922;9.444;2023-07-31T03:59:07;5.77;;;2.03;;
7517;SDS011;3800;48.922;9.444;2023-07-31T04:01:36;4.50;;;2.10;;
7517;SDS011;3800;48.922;9.444;2023-07-31T04:04:05;2.73;;;2.10;;
7517;SDS011;3800;48.922;9.444;2023-07-31T04:06:33;3.30;;;2.00;;
7517;SDS011;3800;48.922;9.444;2023-07-31T04:09:02;2.40;;;2.10;;
7517;SDS011;3800;48.922;9.444;2023-07-31T04:11:30;6.67;;;2.40;;
7517;SDS011;3800;48.922;9.444;2023-07-31T04:14:00;4.83;;;2.13;;
7517;SDS011;3800;48.922;9.444;2023-07-31T04:16:29;3.27;;;2.07;;
7517;SDS011;3800;48.922;9.444;2023-07-31T04:18:57;3.07;;;2.27;;
7517;SDS011;3800;48.922;9.444;2023-07-31T04:21:26;5.67;;;2.60;;
7517;SDS011;3800;48.922;9.444;2023-07-31T04:23:56;2.80;;;1.70;;
7517;SDS011;3800;48.922;9.444;2023-07-31T04:26:24;2.80;;;2.07;;
7517;SDS011;3800;48.922;9.444;2023-07-31T04:28:52;5.03;;;2.30;;
7517;SDS011;3800;48.922;9.444;2023-07-31T04:31:21;5.40;;;2.10;;
7517;SDS011;3800;48.922;9.444;2023-07-31T04:33:49;2.63;;;2.20;;
7517;SDS011;3800;48.922;9.444;2023-07-31T04:36:17;2.70;;;2.00;;
7517;SDS011;3800;48.922;9.444;2023-07-31T04:38:46;4.63;;;2.00;;
7517;SDS011;3800;48.922;9.444;2023-07-31T04:41:15;2.90;;;2.10;;
7517;SDS011;3800;48.922;9.444;2023-07-31T04:43:43;4.23;;;2.37;;
7517;SDS011;3800;48.922;9.444;2023-07-31T04:46:11;4.53;;;2.07;;
7517;SDS011;3800;48.922;9.444;2023-07-31T04:48:39;4.37;;;2.60;;
7517;SDS011;3800;48.922;9.444;2023-07-31T04:51:08;4.53;;;1.97;;
7517;SDS011;3800;48.922;9.444;2023-07-31T04:53:37;4.43;;;2.20;;
7517;SDS011;3800;48.922;9.444;2023-07-31T04:56:05;3.63;;;2.03;;
7517;SDS011;3800;48.922;9.444;2023-07-31T04:58:33;2.73;;;1.93;;
7517;SDS011;3800;48.922;9.444;2023-07-31T05:01:02;3.73;;;2.67;;
7517;SDS011;3800;48.922;9.444;2023-07-31T05:03:30;3.63;;;1.90;;
7517;SDS011;3800;48.922;9.444;2023-07-31T05:05:59;4.63;;;2.43;;
7517;SDS011;3800;48.922;9.444;2023-07-31T05:08:27;2.43;;;2.00;;
7517;SDS011;3800;48.922;9.444;2023-07-31T05:10:56;6.20;;;2.20;;
7517;SDS011;3800;48.922;9.444;2023-07-31T05:13:25;4.53;;;2.30;;
7517;SDS011;3800;48.922;9.444;2023-07-31T05:15:53;2.53;;;2.20;;
7517;SDS011;3800;48.922;9.444;2023-07-31T05:18:21;5.63;;;2.50;;
7517;SDS011;3800;48.922;9.444;2023-07-31T05:20:51;3.63;;;2.27;;
7517;SDS011;3800;48.922;9.444;2023-07-31T05:23:19;3.57;;;2.20;;
7517;SDS011;3800;48.922;9.444;2023-07-31T05:25:48;3.43;;;1.93;;
7517;SDS011;3800;48.922;9.444;2023-07-31T05:28:16;3.17;;;2.07;;
7517;SDS011;3800;48.922;9.444;2023-07-31T05:30:44;4.03;;;2.40;;
7517;SDS011;3800;48.922;9.444;2023-07-31T05:33:13;3.53;;;2.27;;
7517;SDS011;3800;48.922;9.444;2023-07-31T05:35:41;3.70;;;2.20;;
7517;SDS011;3800;48.922;9.444;2023-07-31T05:38:09;3.03;;;2.10;;
7517;SDS011;3800;48.922;9.444;2023-07-31T05:40:38;5.83;;;2.67;;
7517;SDS011;3800;48.922;9.444;2023-07-31T05:43:06;4.57;;;2.27;;
7517;SDS011;3800;48.922;9.444;2023-07-31T05:45:34;4.57;;;2.20;;
7517;SDS011;3800;48.922;9.444;2023-07-31T05:48:03;4.27;;;2.57;;
7517;SDS011;3800;48.922;9.444;2023-07-31T05:50:31;7.40;;;2.63;;
7517;SDS011;3800;48.922;9.444;2023-07-31T05:53:00;5.80;;;2.40;;
7517;SDS011;3800;48.922;9.444;2023-07-31T05:55:28;3.67;;;2.20;;
7517;SDS011;3800;48.922;9.444;2023-07-31T05:57:57;6.10;;;2.53;;
7517;SDS011;3800;48.922;9.444;2023-07-31T06:00:25;3.77;;;2.07;;
7517;SDS011;3800;48.922;9.444;2023-07-31T06:02:53;5.47;;;2.30;;
7517;SDS011;3800;48.922;9.444;2023-07-31T06:05:23;3.60;;;2.23;;
7517;SDS011;3800;48.922;9.444;2023-07-31T06:07:53;4.43;;;2.00;;
7517;SDS011;3800;48.922;9.444;2023-07-31T06:10:22;4.53;;;2.30;;
7517;SDS011;3800;48.922;9.444;2023-07-31T06:12:50;4.20;;;2.10;;
7517;SDS011;3800;48.922;9.444;2023-07-31T06:15:19;7.53;;;2.10;;
7517;SDS011;3800;48.922;9.444;2023-07-31T06:17:47;4.33;;;2.50;;
7517;SDS011;3800;48.922;9.444;2023-07-31T06:20:15;3.30;;;2.27;;
7517;SDS011;3800;48.922;9.444;2023-07-31T06:22:44;3.17;;;2.00;;
7517;SDS011;3800;48.922;9.444;2023-07-31T06:25:12;4.60;;;2.20;;
7517;SDS011;3800;48.922;9.444;2023-07-31T06:27:42;3.33;;;2.00;;
7517;SDS011;3800;48.922;9.444;2023-07-31T06:30:10;3.97;;;2.10;;
7517;SDS011;3800;48.922;9.444;2023-07-31T06:32:41;3.57;;;2.17;;
7517;SDS011;3800;48.922;9.444;2023-07-31T06:35:10;3.13;;;1.87;;
7517;SDS011;3800;48.922;9.444;2023-07-31T06:37:39;3.30;;;2.07;;
7517;SDS011;3800;48.922;9.444;2023-07-31T06:40:07;5.60;;;2.07;;
7517;SDS011;3800;48.922;9.444;2023-07-31T06:42:37;3.97;;;2.30;;
7517;SDS011;3800;48.922;9.444;2023-07-31T06:45:06;4.27;;;2.10;;
7517;SDS011;3800;48.922;9.444;2023-07-31T06:47:36;6.07;;;2.20;;
7517;SDS011;3800;48.922;9.444;2023-07-31T06:50:04;3.37;;;2.30;;
7517;SDS011;3800;48.922;9.444;2023-07-31T06:52:33;4.03;;;2.10;;
7517;SDS011;3800;48.922;9.444;2023-07-31T06:55:02;5.53;;;2.13;;
7517;SDS011;3800;48.922;9.444;2023-07-31T06:57:31;2.50;;;1.90;;
7517;SDS011;3800;48.922;9.444;2023-07-31T06:59:59;2.93;;;1.97;;
7517;SDS011;3800;48.922;9.444;2023-07-31T07:02:28;4.67;;;2.17;;
7517;SDS011;3800;48.922;9.444;2023-07-31T07:04:56;4.53;;;2.10;;
7517;SDS011;3800;48.922;9.444;2023-07-31T07:07:25;6.57;;;2.30;;
7517;SDS011;3800;48.922;9.444;2023-07-31T07:09:53;3.80;;;1.97;;
7517;SDS011;3800;48.922;9.444;2023-07-31T07:12:21;6.50;;;2.27;;
7517;SDS011;3800;48.922;9.444;2023-07-31T07:14:50;4.30;;;2.10;;
7517;SDS011;3800;48.922;9.444;2023-07-31T07:17:19;7.67;;;2.50;;
7517;SDS011;3800;48.922;9.444;2023-07-31T07:19:48;7.63;;;2.57;;
7517;SDS011;3800;48.922;9.444;2023-07-31T07:22:16;3.53;;;2.20;;
7517;SDS011;3800;48.922;9.444;2023-07-31T07:24:44;4.07;;;2.40;;
7517;SDS011;3800;48.922;9.444;2023-07-31T07:27:13;3.60;;;2.10;;
7517;SDS011;3800;48.922;9.444;2023-07-31T07:29:41;4.87;;;2.50;;
7517;SDS011;3800;48.922;9.444;2023-07-31T07:32:10;5.37;;;2.40;;
7517;SDS011;3800;48.922;9.444;2023-07-31T07:34:39;3.00;;;2.20;;
7517;SDS011;3800;48.922;9.444;2023-07-31T07:37:07;4.77;;;2.33;;
7517;SDS011;3800;48.922;9.444;2023-07-31T07:39:35;5.70;;;2.50;;
7517;SDS011;3800;48.922;9.444;2023-07-31T07:42:04;4.90;;;2.67;;
7517;SDS011;3800;48.922;9.444;2023-07-31T07:44:33;4.37;;;2.33;;
7517;SDS011;3800;48.922;9.444;2023-07-31T07:47:01;5.90;;;2.40;;
7517;SDS011;3800;48.922;9.444;2023-07-31T07:49:29;4.57;;;2.63;;
7517;SDS011;3800;48.922;9.444;2023-07-31T07:51:57;4.40;;;2.23;;
7517;SDS011;3800;48.922;9.444;2023-07-31T07:54:26;5.67;;;3.10;;
7517;SDS011;3800;48.922;9.444;2023-07-31T07:56:54;5.37;;;2.50;;
7517;SDS011;3800;48.922;9.444;2023-07-31T07:59:23;5.70;;;2.30;;
7517;SDS011;3800;48.922;9.444;2023-07-31T08:01:51;7.53;;;2.77;;
7517;SDS011;3800;48.922;9.444;2023-07-31T08:04:20;7.37;;;2.30;;
7517;SDS011;3800;48.922;9.444;2023-07-31T08:06:49;3.90;;;2.47;;
7517;SDS011;3800;48.922;9.444;2023-07-31T08:09:18;4.53;;;2.40;;
7517;SDS011;3800;48.922;9.444;2023-07-31T08:11:47;5.07;;;2.47;;
7517;SDS011;3800;48.922;9.444;2023-07-31T08:14:15;6.43;;;2.90;;
7517;SDS011;3800;48.922;9.444;2023-07-31T08:16:43;4.23;;;2.80;;
7517;SDS011;3800;48.922;9.444;2023-07-31T08:19:12;4.87;;;2.30;;
7517;SDS011;3800;48.922;9.444;2023-07-31T08:21:40;5.47;;;2.57;;
7517;SDS011;3800;48.922;9.444;2023-07-31T08:24:09;4.93;;;2.57;;
7517;SDS011;3800;48.922;9.444;2023-07-31T08:26:37;4.93;;;2.50;;
7517;SDS011;3800;48.922;9.444;2023-07-31T08:29:06;5.33;;;2.70;;
7517;SDS011;3800;48.922;9.444;2023-07-31T08:31:35;5.00;;;2.47;;
7517;SDS011;3800;48.922;9.444;2023-07-31T08:34:04;5.97;;;2.80;;
7517;SDS011;3800;48.922;9.444;2023-07-31T08:36:32;5.57;;;2.33;;
7517;SDS011;3800;48.922;9.444;2023-07-31T08:39:01;5.23;;;2.63;;
7517;SDS011;3800;48.922;9.444;2023-07-31T08:41:29;4.90;;;2.53;;
7517;SDS011;3800;48.922;9.444;2023-07-31T08:43:57;6.90;;;2.67;;
7517;SDS011;3800;48.922;9.444;2023-07-31T08:46:25;6.60;;;2.47;;
7517;SDS011;3800;48.922;9.444;2023-07-31T08:48:54;3.53;;;2.50;;
7517;SDS011;3800;48.922;9.444;2023-07-31T08:51:22;5.37;;;2.47;;
7517;SDS011;3800;48.922;9.444;2023-07-31T08:53:50;4.80;;;2.30;;
7517;SDS011;3800;48.922;9.444;2023-07-31T08:56:20;4.37;;;2.40;;
7517;SDS011;3800;48.922;9.444;2023-07-31T08:58:48;4.40;;;2.60;;
7517;SDS011;3800;48.922;9.444;2023-07-31T09:01:17;4.00;;;2.30;;
7517;SDS011;3800;48.922;9.444;2023-07-31T09:03:45;6.37;;;2.50;;
7517;SDS011;3800;48.922;9.444;2023-07-31T09:06:13;4.03;;;2.67;;
7517;SDS011;3800;48.922;9.444;2023-07-31T09:08:41;5.77;;;2.73;;
7517;SDS011;3800;48.922;9.444;2023-07-31T09:11:10;5.40;;;2.50;;
7517;SDS011;3800;48.922;9.444;2023-07-31T09:13:38;5.27;;;2.53;;
7517;SDS011;3800;48.922;9.444;2023-07-31T09:16:07;4.90;;;2.63;;
7517;SDS011;3800;48.922;9.444;2023-07-31T09:18:54;5.23;;;2.33;;
7517;SDS011;3800;48.922;9.444;2023-07-31T09:21:24;4.77;;;2.43;;
7517;SDS011;3800;48.922;9.444;2023-07-31T09:23:52;7.57;;;3.00;;
7517;SDS011;3800;48.922;9.444;2023-07-31T09:26:28;3.90;;;2.50;;
7517;SDS011;3800;48.922;9.444;2023-07-31T09:29:06;4.33;;;2.60;;
7517;SDS011;3800;48.922;9.444;2023-07-31T09:31:38;3.50;;;2.50;;
7517;SDS011;3800;48.922;9.444;2023-07-31T09:34:07;8.17;;;2.60;;
7517;SDS011;3800;48.922;9.444;2023-07-31T09:36:40;6.23;;;2.47;;
7517;SDS011;3800;48.922;9.444;2023-07-31T09:39:11;5.10;;;2.70;;
7517;SDS011;3800;48.922;9.444;2023-07-31T09:41:40;4.27;;;2.70;;
7517;SDS011;3800;48.922;9.444;2023-07-31T09:44:08;4.73;;;2.20;;
7517;SDS011;3800;48.922;9.444;2023-07-31T09:46:36;7.50;;;2.67;;
7517;SDS011;3800;48.922;9.444;2023-07-31T09:49:09;7.13;;;2.50;;
7517;SDS011;3800;48.922;9.444;2023-07-31T09:51:38;4.87;;;2.40;;
7517;SDS011;3800;48.922;9.444;2023-07-31T09:54:09;7.27;;;2.77;;
7517;SDS011;3800;48.922;9.444;2023-07-31T09:56:42;3.40;;;2.50;;
7517;SDS011;3800;48.922;9.444;2023-07-31T09:59:11;4.83;;;2.70;;
7517;SDS011;3800;48.922;9.444;2023-07-31T10:01:39;5.23;;;2.33;;
7517;SDS011;3800;48.922;9.444;2023-07-31T10:04:08;5.30;;;2.60;;
7517;SDS011;3800;48.922;9.444;2023-07-31T10:06:37;5.00;;;2.53;;
7517;SDS011;3800;48.922;9.444;2023-07-31T10:09:06;4.30;;;2.43;;
7517;SDS011;3800;48.922;9.444;2023-07-31T10:11:37;4.40;;;2.40;;
7517;SDS011;3800;48.922;9.444;2023-07-31T10:14:07;3.37;;;2.30;;
7517;SDS011;3800;48.922;9.444;2023-07-31T10:16:34;3.07;;;2.10;;
7517;SDS011;3800;48.922;9.444;2023-07-31T10:19:03;4.50;;;2.50;;
7517;SDS011;3800;48.922;9.444;2023-07-31T10:21:31;4.77;;;2.40;;
7517;SDS011;3800;48.922;9.444;2023-07-31T10:24:02;4.37;;;2.60;;
7517;SDS011;3800;48.922;9.444;2023-07-31T10:26:32;4.13;;;2.63;;
7517;SDS011;3800;48.922;9.444;2023-07-31T10:29:01;4.27;;;2.87;;
7517;SDS011;3800;48.922;9.444;2023-07-31T10:31:29;5.97;;;2.53;;
7517;SDS011;3800;48.922;9.444;2023-07-31T10:33:57;4.67;;;2.83;;
7517;SDS011;3800;48.922;9.444;2023-07-31T10:36:28;5.00;;;2.60;;
7517;SDS011;3800;48.922;9.444;2023-07-31T10:38:56;4.03;;;2.40;;
7517;SDS011;3800;48.922;9.444;2023-07-31T10:41:29;4.33;;;2.00;;
7517;SDS011;3800;48.922;9.444;2023-07-31T10:43:59;5.33;;;2.63;;
7517;SDS011;3800;48.922;9.444;2023-07-31T10:46:28;6.43;;;2.63;;
7517;SDS011;3800;48.922;9.444;2023-07-31T10:48:58;3.93;;;2.27;;
7517;SDS011;3800;48.922;9.444;2023-07-31T10:51:32;6.23;;;2.63;;
7517;SDS011;3800;48.922;9.444;2023-07-31T10:56:38;3.83;;;2.60;;
7517;SDS011;3800;48.922;9.444;2023-07-31T10:59:06;4.77;;;3.10;;
7517;SDS011;3800;48.922;9.444;2023-07-31T11:04:21;5.67;;;2.80;;
7517;SDS011;3800;48.922;9.444;2023-07-31T11:06:55;6.33;;;2.77;;
7517;SDS011;3800;48.922;9.444;2023-07-31T11:09:28;6.07;;;2.90;;
7517;SDS011;3800;48.922;9.444;2023-07-31T11:11:57;5.20;;;2.93;;
7517;SDS011;3800;48.922;9.444;2023-07-31T11:14:26;4.60;;;2.90;;
7517;SDS011;3800;48.922;9.444;2023-07-31T11:16:55;4.53;;;2.67;;
7517;SDS011;3800;48.922;9.444;2023-07-31T11:19:24;5.00;;;2.30;;
7517;SDS011;3800;48.922;9.444;2023-07-31T11:21:52;5.27;;;2.70;;
7517;SDS011;3800;48.922;9.444;2023-07-31T11:24:20;5.93;;;2.90;;
7517;SDS011;3800;48.922;9.444;2023-07-31T11:26:51;6.43;;;2.60;;
7517;SDS011;3800;48.922;9.444;2023-07-31T11:29:19;5.53;;;2.90;;
7517;SDS011;3800;48.922;9.444;2023-07-31T11:31:48;5.67;;;2.67;;
7517;SDS011;3800;48.922;9.444;2023-07-31T11:34:16;5.00;;;2.60;;
7517;SDS011;3800;48.922;9.444;2023-07-31T11:39:20;5.30;;;2.80;;
7517;SDS011;3800;48.922;9.444;2023-07-31T11:41:49;5.13;;;2.60;;
7517;SDS011;3800;48.922;9.444;2023-07-31T11:44:17;6.23;;;3.03;;
7517;SDS011;3800;48.922;9.444;2023-07-31T11:46:45;5.10;;;2.90;;
7517;SDS011;3800;48.922;9.444;2023-07-31T11:49:14;4.20;;;2.40;;
7517;SDS011;3800;48.922;9.444;2023-07-31T11:51:42;6.77;;;2.73;;
7517;SDS011;3800;48.922;9.444;2023-07-31T11:54:11;5.03;;;2.97;;
7517;SDS011;3800;48.922;9.444;2023-07-31T11:56:40;4.00;;;2.53;;
7517;SDS011;3800;48.922;9.444;2023-07-31T11:59:08;5.17;;;2.70;;
7517;SDS011;3800;48.922;9.444;2023-07-31T12:01:37;5.60;;;2.90;;
7517;SDS011;3800;48.922;9.444;2023-07-31T12:04:06;5.73;;;2.67;;
7517;SDS011;3800;48.922;9.444;2023-07-31T12:06:35;4.43;;;2.50;;
7517;SDS011;3800;48.922;9.444;2023-07-31T12:09:03;4.50;;;2.80;;
7517;SDS011;3800;48.922;9.444;2023-07-31T12:11:31;6.30;;;2.83;;
7517;SDS011;3800;48.922;9.444;2023-07-31T12:14:00;5.40;;;4.00;;
7517;SDS011;3800;48.922;9.444;2023-07-31T12:16:28;4.33;;;3.20;;
7517;SDS011;3800;48.922;9.444;2023-07-31T12:18:56;5.73;;;3.43;;
7517;SDS011;3800;48.922;9.444;2023-07-31T12:21:26;5.77;;;3.77;;
7517;SDS011;3800;48.922;9.444;2023-07-31T12:23:54;4.30;;;2.60;;
7517;SDS011;3800;48.922;9.444;2023-07-31T12:26:22;4.77;;;3.50;;
7517;SDS011;3800;48.922;9.444;2023-07-31T12:28:54;6.43;;;3.40;;
7517;SDS011;3800;48.922;9.444;2023-07-31T12:31:21;8.13;;;2.90;;
7517;SDS011;3800;48.922;9.444;2023-07-31T12:33:50;3.73;;;2.60;;
7517;SDS011;3800;48.922;9.444;2023-07-31T12:36:18;4.90;;;2.80;;
7517;SDS011;3800;48.922;9.444;2023-07-31T12:38:50;3.40;;;2.60;;
7517;SDS011;3800;48.922;9.444;2023-07-31T12:41:19;3.77;;;2.80;;
7517;SDS011;3800;48.922;9.444;2023-07-31T12:43:48;4.37;;;2.70;;
7517;SDS011;3800;48.922;9.444;2023-07-31T12:46:18;5.47;;;2.97;;
7517;SDS011;3800;48.922;9.444;2023-07-31T12:48:46;6.90;;;2.97;;
7517;SDS011;3800;48.922;9.444;2023-07-31T12:51:15;6.50;;;2.90;;
7517;SDS011;3800;48.922;9.444;2023-07-31T12:53:43;7.40;;;2.77;;
7517;SDS011;3800;48.922;9.444;2023-07-31T12:56:11;6.40;;;2.80;;
7517;SDS011;3800;48.922;9.444;2023-07-31T12:58:40;4.70;;;3.13;;
7517;SDS011;3800;48.922;9.444;2023-07-31T13:01:09;4.50;;;2.87;;
7517;SDS011;3800;48.922;9.444;2023-07-31T13:03:37;4.77;;;2.50;;
7517;SDS011;3800;48.922;9.444;2023-07-31T13:06:06;5.83;;;2.80;;
7517;SDS011;3800;48.922;9.444;2023-07-31T13:08:34;4.90;;;2.80;;
7517;SDS011;3800;48.922;9.444;2023-07-31T13:11:02;5.40;;;2.70;;
7517;SDS011;3800;48.922;9.444;2023-07-31T13:13:31;5.57;;;3.00;;
7517;SDS011;3800;48.922;9.444;2023-07-31T13:15:59;4.03;;;2.27;;
7517;SDS011;3800;48.922;9.444;2023-07-31T13:18:27;7.23;;;2.90;;
7517;SDS011;3800;48.922;9.444;2023-07-31T13:20:56;4.90;;;2.77;;
7517;SDS011;3800;48.922;9.444;2023-07-31T13:23:24;4.40;;;2.83;;
7517;SDS011;3800;48.922;9.444;2023-07-31T13:25:53;5.87;;;2.70;;
7517;SDS011;3800;48.922;9.444;2023-07-31T13:28:21;5.43;;;2.80;;
7517;SDS011;3800;48.922;9.444;2023-07-31T13:30:49;3.83;;;2.60;;
7517;SDS011;3800;48.922;9.444;2023-07-31T13:33:17;5.20;;;3.00;;
7517;SDS011;3800;48.922;9.444;2023-07-31T13:35:46;6.53;;;3.00;;
7517;SDS011;3800;48.922;9.444;2023-07-31T13:38:15;4.63;;;2.87;;
7517;SDS011;3800;48.922;9.444;2023-07-31T13:40:43;5.30;;;3.03;;
7517;SDS011;3800;48.922;9.444;2023-07-31T13:43:11;8.17;;;2.90;;
7517;SDS011;3800;48.922;9.444;2023-07-31T13:45:39;4.57;;;2.80;;
7517;SDS011;3800;48.922;9.444;2023-07-31T13:48:08;4.37;;;2.60;;
7517;SDS011;3800;48.922;9.444;2023-07-31T13:50:36;4.67;;;2.60;;
7517;SDS011;3800;48.922;9.444;2023-07-31T13:53:04;4.47;;;2.70;;
7517;SDS011;3800;48.922;9.444;2023-07-31T13:55:33;4.57;;;2.83;;
7517;SDS011;3800;48.922;9.444;2023-07-31T13:58:02;8.20;;;2.60;;
7517;SDS011;3800;48.922;9.444;2023-07-31T14:00:30;14.00;;;3.43;;
7517;SDS011;3800;48.922;9.444;2023-07-31T14:02:58;7.27;;;2.70;;
7517;SDS011;3800;48.922;9.444;2023-07-31T14:05:27;3.53;;;2.57;;
7517;SDS011;3800;48.922;9.444;2023-07-31T14:07:55;5.43;;;2.60;;
7517;SDS011;3800;48.922;9.444;2023-07-31T14:10:26;3.90;;;2.50;;
7517;SDS011;3800;48.922;9.444;2023-07-31T14:12:54;4.80;;;2.60;;
7517;SDS011;3800;48.922;9.444;2023-07-31T14:15:23;4.20;;;2.57;;
7517;SDS011;3800;48.922;9.444;2023-07-31T14:17:51;5.47;;;2.90;;
7517;SDS011;3800;48.922;9.444;2023-07-31T14:20:19;4.77;;;2.77;;
7517;SDS011;3800;48.922;9.444;2023-07-31T14:22:49;3.77;;;2.47;;
7517;SDS011;3800;48.922;9.444;2023-07-31T14:25:17;5.30;;;2.73;;
7517;SDS011;3800;48.922;9.444;2023-07-31T14:27:45;4.67;;;2.50;;
7517;SDS011;3800;48.922;9.444;2023-07-31T14:30:14;4.00;;;2.80;;
7517;SDS011;3800;48.922;9.444;2023-07-31T14:32:42;3.97;;;2.40;;
7517;SDS011;3800;48.922;9.444;2023-07-31T14:35:11;4.13;;;2.80;;
7517;SDS011;3800;48.922;9.444;2023-07-31T14:37:40;6.77;;;2.80;;
7517;SDS011;3800;48.922;9.444;2023-07-31T14:40:08;4.00;;;2.60;;
7517;SDS011;3800;48.922;9.444;2023-07-31T14:42:39;4.37;;;2.63;;
7517;SDS011;3800;48.922;9.444;2023-07-31T14:45:07;5.80;;;3.03;;
7517;SDS011;3800;48.922;9.444;2023-07-31T14:47:36;5.33;;;3.20;;
7517;SDS011;3800;48.922;9.444;2023-07-31T14:50:05;3.93;;;2.47;;
7517;SDS011;3800;48.922;9.444;2023-07-31T14:52:34;4.40;;;3.07;;
7517;SDS011;3800;48.922;9.444;2023-07-31T14:55:04;3.63;;;2.77;;
7517;SDS011;3800;48.922;9.444;2023-07-31T14:57:34;4.67;;;2.63;;
7517;SDS011;3800;48.922;9.444;2023-07-31T15:00:02;3.00;;;2.40;;
7517;SDS011;3800;48.922;9.444;2023-07-31T15:02:31;4.83;;;2.53;;
7517;SDS011;3800;48.922;9.444;2023-07-31T15:05:03;5.63;;;2.77;;
7517;SDS011;3800;48.922;9.444;2023-07-31T15:07:33;5.97;;;2.67;;
7517;SDS011;3800;48.922;9.444;2023-07-31T15:10:01;4.10;;;2.47;;
7517;SDS011;3800;48.922;9.444;2023-07-31T15:12:30;5.77;;;3.07;;
7517;SDS011;3800;48.922;9.444;2023-07-31T15:14:58;4.60;;;2.50;;
7517;SDS011;3800;48.922;9.444;2023-07-31T15:17:26;3.73;;;2.63;;
7517;SDS011;3800;48.922;9.444;2023-07-31T15:19:54;3.67;;;2.40;;
7517;SDS011;3800;48.922;9.444;2023-07-31T15:22:23;4.80;;;2.90;;
7517;SDS011;3800;48.922;9.444;2023-07-31T15:24:51;4.07;;;2.90;;
7517;SDS011;3800;48.922;9.444;2023-07-31T15:27:19;4.83;;;3.07;;
7517;SDS011;3800;48.922;9.444;2023-07-31T15:29:49;3.80;;;2.53;;
7517;SDS011;3800;48.922;9.444;2023-07-31T15:32:16;5.10;;;2.57;;